Time;durP1;ratioP1;P1;durP2;ratioP2;P2;SDS_P1;SDS_P2;PMS_P1;PMS_P2;Temp;Humidity;BMP_temperature;BMP_pressure;BME280_temperature;BME280_humidity;BME280_pressure;Samples;Min_cycle;Max_cycle;Signal;HPM_P1;HPM_P2
2022/07/08 00:00:51;;;;;;;7.58;2.85;;;;;;;15.19;93.72;96842.56;1681972;84;21024;-85
2022/07/08 00:03:18;;;;;;;4.90;2.47;;;;;;;15.15;93.77;96845.28;1668835;85;21001;-87
2022/07/08 00:05:44;;;;;;;3.15;2.20;;;;;;;15.15;93.93;96854.45;1697091;84;21095;-86
2022/07/08 00:08:10;;;;;;;5.95;2.47;;;;;;;15.14;93.85;96851.53;1695356;84;20953;-86
2022/07/08 00:10:36;;;;;;;5.60;2.72;;;;;;;15.13;93.72;96852.50;1697334;84;21079;-85
2022/07/08 00:13:03;;;;;;;5.33;2.77;;;;;;;15.10;93.68;96847.67;1697141;84;20999;-85
2022/07/08 00:15:29;;;;;;;4.33;2.33;;;;;;;15.09;93.75;96846.06;1685227;85;20981;-86
2022/07/08 00:17:56;;;;;;;4.20;2.65;;;;;;;15.08;93.84;96843.95;1661442;85;20989;-86
2022/07/08 00:20:21;;;;;;;2.90;2.42;;;;;;;15.05;93.89;96848.78;1664514;85;20980;-86
2022/07/08 00:22:47;;;;;;;3.60;2.37;;;;;;;15.02;94.01;96848.67;1686977;84;21011;-85
2022/07/08 00:25:13;;;;;;;6.67;3.05;;;;;;;15.03;93.94;96846.86;1685554;84;20942;-84
2022/07/08 00:27:39;;;;;;;6.97;2.55;;;;;;;14.99;93.93;96843.34;1685034;85;21452;-86
2022/07/08 00:30:06;;;;;;;5.12;2.17;;;;;;;14.96;93.97;96847.64;1685068;85;21329;-85
2022/07/08 00:32:32;;;;;;;4.20;2.60;;;;;;;14.96;94.06;96848.94;1681735;85;21022;-86
2022/07/08 00:34:57;;;;;;;4.60;1.98;;;;;;;14.96;93.92;96845.02;1685313;85;20983;-84
2022/07/08 00:37:23;;;;;;;6.80;2.27;;;;;;;14.93;93.95;96853.27;1685304;85;20982;-84
2022/07/08 00:39:49;;;;;;;6.12;2.22;;;;;;;14.93;93.80;96856.39;1697362;84;20991;-84
2022/07/08 00:42:15;;;;;;;5.05;2.33;;;;;;;14.89;93.92;96851.25;1682121;84;21340;-84
2022/07/08 00:44:40;;;;;;;4.87;2.30;;;;;;;14.89;93.87;96852.06;1729091;83;20978;-85
2022/07/08 00:47:06;;;;;;;8.23;2.22;;;;;;;14.87;93.98;96852.77;1724074;83;21113;-85
2022/07/08 00:49:32;;;;;;;6.05;2.30;;;;;;;14.85;94.04;96850.84;1724807;83;21403;-84
2022/07/08 00:51:58;;;;;;;4.12;2.00;;;;;;;14.83;94.14;96848.93;1729640;83;21413;-84
2022/07/08 00:54:24;;;;;;;4.67;2.02;;;;;;;14.85;94.13;96855.27;1729627;83;21047;-85
2022/07/08 00:56:49;;;;;;;3.37;1.92;;;;;;;14.86;94.02;96855.08;1727712;82;21448;-84
2022/07/08 00:59:15;;;;;;;4.58;2.20;;;;;;;14.88;94.07;96857.48;1724846;83;21014;-84
2022/07/08 01:01:41;;;;;;;3.75;2.08;;;;;;;14.89;94.00;96850.75;1725022;83;20989;-85
2022/07/08 01:04:06;;;;;;;3.42;2.20;;;;;;;14.90;93.90;96852.36;1724904;83;20992;-85
2022/07/08 01:06:32;;;;;;;7.17;2.65;;;;;;;14.89;93.96;96855.98;1725002;83;20935;-86
2022/07/08 01:08:58;;;;;;;5.17;2.42;;;;;;;14.89;93.82;96856.48;1724898;83;20927;-86
2022/07/08 01:11:25;;;;;;;4.37;2.22;;;;;;;14.88;93.78;96852.26;1724780;83;21013;-84
2022/07/08 01:13:53;;;;;;;2.52;2.33;;;;;;;14.88;93.75;96859.60;1724758;83;21055;-85
2022/07/08 01:16:19;;;;;;;3.80;2.55;;;;;;;14.89;93.78;96857.80;1724890;83;20968;-84
2022/07/08 01:18:44;;;;;;;5.45;2.65;;;;;;;14.90;93.74;96862.83;1718157;83;21011;-85
2022/07/08 01:21:11;;;;;;;5.20;2.90;;;;;;;14.90;93.71;96861.52;1724624;83;20994;-86
2022/07/08 01:23:37;;;;;;;4.85;2.72;;;;;;;14.89;93.50;96865.14;1724628;83;21010;-86
2022/07/08 01:26:13;;;;;;;6.42;2.75;;;;;;;14.90;93.52;96862.83;1724623;83;21421;-85
2022/07/08 01:28:42;;;;;;;5.03;2.40;;;;;;;14.89;93.32;96854.67;1724851;83;20999;-84
2022/07/08 01:31:07;;;;;;;6.15;2.62;;;;;;;14.88;93.39;96860.91;1724607;83;21054;-85
2022/07/08 01:33:33;;;;;;;3.72;2.85;;;;;;;14.89;93.34;96863.83;1713316;83;21057;-85
2022/07/08 01:35:59;;;;;;;3.17;2.50;;;;;;;14.85;93.01;96863.13;1721285;83;20979;-85
2022/07/08 01:38:24;;;;;;;5.65;3.33;;;;;;;14.82;93.16;96860.91;1724859;83;20969;-86
2022/07/08 01:40:50;;;;;;;4.87;2.42;;;;;;;14.81;93.37;96860.60;1724744;83;20935;-84
2022/07/08 01:43:16;;;;;;;6.00;2.62;;;;;;;14.77;93.12;96856.23;1724946;83;21327;-84
2022/07/08 01:45:42;;;;;;;5.65;3.02;;;;;;;14.74;93.04;96859.75;1713183;83;20955;-87
2022/07/08 01:48:07;;;;;;;3.12;2.83;;;;;;;14.71;93.07;96863.58;1719353;83;20962;-87
2022/07/08 01:50:33;;;;;;;4.12;2.30;;;;;;;14.67;92.95;96863.66;1725019;83;20995;-87
2022/07/08 01:52:59;;;;;;;4.15;2.62;;;;;;;14.65;92.74;96865.67;1724055;83;21358;-87
2022/07/08 01:55:25;;;;;;;4.47;2.72;;;;;;;14.64;92.92;96869.27;1724066;83;21058;-87
2022/07/08 01:57:51;;;;;;;4.92;3.35;;;;;;;14.64;92.96;96870.56;1727807;81;21097;-84
2022/07/08 02:00:17;;;;;;;4.90;3.10;;;;;;;14.63;92.84;96871.07;1707636;83;20974;-86
2022/07/08 02:02:43;;;;;;;5.37;3.20;;;;;;;14.60;92.95;96876.70;1722284;83;21057;-86
2022/07/08 02:05:09;;;;;;;7.20;3.47;;;;;;;14.57;93.13;96870.55;1730612;83;21115;-86
2022/07/08 02:07:36;;;;;;;4.85;3.12;;;;;;;14.55;93.32;96872.56;1728133;83;20942;-86
2022/07/08 02:10:02;;;;;;;5.15;2.58;;;;;;;14.55;93.43;96876.98;1727534;83;21141;-85
2022/07/08 02:12:28;;;;;;;4.97;2.45;;;;;;;14.54;93.60;96870.95;1731138;83;20939;-84
2022/07/08 02:15:01;;;;;;;5.60;2.60;;;;;;;14.55;93.63;96879.59;1729902;83;20930;-86
2022/07/08 02:17:27;;;;;;;5.50;2.40;;;;;;;14.54;93.74;96884.02;1729314;83;21006;-86
2022/07/08 02:19:53;;;;;;;3.92;2.83;;;;;;;14.57;93.95;96890.66;1729504;83;21428;-86
2022/07/08 02:22:19;;;;;;;5.03;2.60;;;;;;;14.59;93.85;96895.20;1731686;83;20967;-86
2022/07/08 02:24:47;;;;;;;6.97;3.08;;;;;;;14.60;93.88;96897.62;1729730;83;21037;-86
2022/07/08 02:27:13;;;;;;;5.22;3.15;;;;;;;14.51;93.91;96884.41;1731399;83;21456;-85
2022/07/08 02:29:39;;;;;;;5.40;3.45;;;;;;;14.61;94.04;96905.77;1730889;83;21016;-85
2022/07/08 02:32:05;;;;;;;4.65;2.80;;;;;;;14.62;94.13;96902.66;1728994;83;21100;-85
2022/07/08 02:34:30;;;;;;;5.97;2.77;;;;;;;14.63;93.75;96909.49;1729133;83;21011;-85
2022/07/08 02:36:56;;;;;;;6.62;2.95;;;;;;;14.61;93.97;96912.30;1728840;83;21416;-84
2022/07/08 02:39:22;;;;;;;5.45;2.90;;;;;;;14.62;94.01;96910.50;1730812;83;20966;-86
2022/07/08 02:41:47;;;;;;;7.20;3.90;;;;;;;14.64;93.88;96912.41;1702592;83;20976;-84
2022/07/08 02:44:13;;;;;;;6.97;3.22;;;;;;;14.66;94.01;96916.98;1716547;83;20994;-86
2022/07/08 02:46:41;;;;;;;4.30;2.90;;;;;;;14.66;93.93;96918.28;1728075;83;21037;-86
2022/07/08 02:49:08;;;;;;;6.85;3.05;;;;;;;14.67;94.02;96915.47;1726185;83;21026;-85
2022/07/08 02:51:35;;;;;;;7.28;4.50;;;;;;;14.69;93.96;96921.31;1731028;83;21317;-86
2022/07/08 02:54:01;;;;;;;6.42;4.25;;;;;;;14.69;94.02;96921.81;1731602;83;20947;-86
2022/07/08 02:56:29;;;;;;;6.22;3.50;;;;;;;14.68;93.88;96928.05;1729234;83;21074;-87
2022/07/08 02:58:55;;;;;;;5.17;3.05;;;;;;;14.67;93.76;96928.55;1666932;86;21351;-86
2022/07/08 03:01:20;;;;;;;5.20;3.08;;;;;;;14.67;93.75;96930.36;1690315;85;20951;-87
2022/07/08 03:03:46;;;;;;;6.25;3.85;;;;;;;14.67;93.85;96930.36;1691654;85;21015;-86
2022/07/08 03:06:12;;;;;;;5.10;2.70;;;;;;;14.67;93.86;96935.59;1670107;86;21084;-85
2022/07/08 03:08:38;;;;;;;3.22;2.83;;;;;;;14.67;94.00;96931.67;1692176;85;21047;-86
2022/07/08 03:11:04;;;;;;;3.30;2.58;;;;;;;14.67;94.04;96936.90;1668906;86;21429;-86
2022/07/08 03:13:30;;;;;;;4.95;3.05;;;;;;;14.69;94.02;96940.93;1691789;84;20975;-86
2022/07/08 03:15:57;;;;;;;5.67;3.50;;;;;;;14.70;93.96;96945.16;1670066;86;20964;-85
2022/07/08 03:18:23;;;;;;;4.22;3.92;;;;;;;14.71;94.08;96941.55;1669637;86;21087;-84
2022/07/08 03:20:49;;;;;;;5.85;3.90;;;;;;;14.70;93.92;96948.27;1704552;83;21070;-86
2022/07/08 03:23:15;;;;;;;4.70;3.83;;;;;;;14.69;94.03;96944.05;1666999;85;21479;-84
2022/07/08 03:25:40;;;;;;;5.20;3.90;;;;;;;14.70;93.86;96944.35;1693648;84;21346;-84
2022/07/08 03:28:07;;;;;;;5.75;3.62;;;;;;;14.67;93.77;96944.75;1673992;85;21082;-85
2022/07/08 03:30:33;;;;;;;4.72;3.25;;;;;;;14.68;93.79;96949.78;1665865;86;21480;-85
2022/07/08 03:32:58;;;;;;;4.03;3.10;;;;;;;14.68;93.76;96947.16;1670074;86;20947;-85
2022/07/08 03:35:24;;;;;;;3.85;3.25;;;;;;;14.69;93.64;96947.47;1692849;85;20967;-85
2022/07/08 03:37:50;;;;;;;9.15;4.35;;;;;;;14.73;93.68;96954.92;1670306;86;21000;-85
2022/07/08 03:43:00;;;;;;;5.25;3.80;;;;;;;14.72;93.81;96963.27;1729693;83;20986;-87
2022/07/08 03:45:26;;;;;;;3.70;3.35;;;;;;;14.72;94.02;96956.73;1667089;85;20960;-86
2022/07/08 03:47:52;;;;;;;4.17;3.00;;;;;;;14.74;93.88;96963.88;1688853;85;21428;-85
2022/07/08 03:50:18;;;;;;;6.20;3.37;;;;;;;14.75;94.09;96967.30;1659259;86;21011;-85
2022/07/08 03:52:45;;;;;;;5.80;3.60;;;;;;;14.77;94.08;96969.22;1718979;83;21335;-87
2022/07/08 03:55:11;;;;;;;5.15;3.85;;;;;;;14.77;94.00;96965.30;1728748;83;20947;-85
2022/07/08 03:57:38;;;;;;;4.62;3.83;;;;;;;14.77;93.92;96967.41;1726991;81;21335;-86
2022/07/08 04:00:07;;;;;;;5.08;4.33;;;;;;;14.77;93.90;96967.41;1723344;83;20991;-86
2022/07/08 04:02:33;;;;;;;5.37;4.28;;;;;;;14.78;93.83;96966.91;1715583;83;21063;-86
2022/07/08 04:04:59;;;;;;;5.35;3.70;;;;;;;14.78;93.99;96970.34;1722557;83;20986;-87
2022/07/08 04:07:24;;;;;;;5.72;4.17;;;;;;;14.79;94.21;96981.11;1723693;83;21413;-86
2022/07/08 04:09:50;;;;;;;5.87;4.03;;;;;;;14.79;94.33;96982.91;1723242;83;21449;-85
2022/07/08 04:12:18;;;;;;;5.95;3.90;;;;;;;14.81;94.31;96978.32;1724740;83;20991;-85
2022/07/08 04:14:44;;;;;;;5.30;3.52;;;;;;;14.81;94.14;96982.25;1724985;83;21268;-87
2022/07/08 04:17:10;;;;;;;6.87;3.50;;;;;;;14.82;94.30;96984.67;1724832;83;21039;-85
2022/07/08 04:19:36;;;;;;;5.33;3.50;;;;;;;14.84;94.34;96983.16;1724926;83;21000;-86
2022/07/08 04:22:02;;;;;;;4.37;3.70;;;;;;;14.85;94.15;96975.12;1724913;83;20935;-86
2022/07/08 04:24:27;;;;;;;4.33;3.55;;;;;;;14.89;94.46;96985.50;1717634;83;21416;-87
2022/07/08 04:26:53;;;;;;;5.20;3.70;;;;;;;14.90;94.35;96981.88;1712195;83;21065;-88
2022/07/08 04:29:19;;;;;;;5.53;3.92;;;;;;;14.93;94.49;96985.91;1723062;83;20940;-84
2022/07/08 04:31:45;;;;;;;5.33;4.33;;;;;;;14.95;94.55;96987.33;1710273;83;21789;-84
2022/07/08 04:34:11;;;;;;;4.72;3.40;;;;;;;14.95;94.58;96985.21;1724985;83;20973;-84
2022/07/08 04:36:36;;;;;;;5.30;4.10;;;;;;;14.98;94.56;96980.42;1724616;83;20911;-84
2022/07/08 04:39:05;;;;;;;4.37;3.60;;;;;;;15.02;94.60;96991.30;1696463;84;21472;-85
2022/07/08 04:41:31;;;;;;;7.47;3.95;;;;;;;15.07;94.49;96990.70;1697552;84;20976;-85
2022/07/08 04:43:57;;;;;;;6.95;3.20;;;;;;;15.11;94.53;96986.69;1690158;84;21369;-86
2022/07/08 04:46:22;;;;;;;3.83;3.52;;;;;;;15.18;94.59;96992.28;1697594;84;20959;-85
2022/07/08 04:48:48;;;;;;;4.47;3.47;;;;;;;15.24;94.81;96992.79;1697768;84;20948;-86
2022/07/08 04:51:14;;;;;;;4.53;3.20;;;;;;;15.30;94.75;96989.91;1697760;84;21000;-87
2022/07/08 04:53:39;;;;;;;6.55;3.12;;;;;;;15.35;94.72;96990.63;1697757;84;20936;-87
2022/07/08 04:56:06;;;;;;;6.40;3.17;;;;;;;15.38;94.67;96994.95;1696323;84;20968;-86
2022/07/08 04:58:32;;;;;;;5.60;3.10;;;;;;;15.41;94.52;96986.70;1685582;84;21426;-86
2022/07/08 05:00:58;;;;;;;4.15;2.83;;;;;;;15.44;94.19;96986.80;1690838;83;20999;-88
2022/07/08 05:03:23;;;;;;;3.72;2.55;;;;;;;15.52;94.02;96987.45;1690910;85;21214;-87
2022/07/08 05:05:49;;;;;;;10.15;4.87;;;;;;;15.52;94.02;96987.45;1668620;86;21091;-86
2022/07/08 05:08:15;;;;;;;2.98;2.67;;;;;;;15.58;94.09;96986.64;1669228;84;21062;-86
2022/07/08 05:10:43;;;;;;;5.72;3.17;;;;;;;15.64;94.33;96987.72;1703988;83;21060;-86
2022/07/08 05:13:09;;;;;;;4.33;3.35;;;;;;;15.71;93.94;96992.45;1728903;83;20924;-87
2022/07/08 05:15:35;;;;;;;3.72;3.08;;;;;;;15.80;93.84;97002.25;1726985;83;20955;-87
2022/07/08 05:18:01;;;;;;;6.10;4.15;;;;;;;15.84;93.55;97006.89;1728694;83;20971;-87
2022/07/08 05:20:26;;;;;;;5.37;4.17;;;;;;;15.90;93.55;97008.70;1725605;83;21003;-87
2022/07/08 05:22:52;;;;;;;5.62;5.12;;;;;;;15.98;93.47;97012.96;1725782;81;21005;-87
2022/07/08 05:25:18;;;;;;;9.13;3.62;;;;;;;15.95;92.48;97005.50;1647714;86;22013;-87
2022/07/08 05:27:44;;;;;;;5.80;5.22;;;;;;;16.05;92.55;97015.07;1688775;85;21011;-87
2022/07/08 05:30:10;;;;;;;5.58;4.85;;;;;;;16.07;91.74;97021.42;1665271;85;21015;-88
2022/07/08 05:32:36;;;;;;;7.28;6.58;;;;;;;16.12;92.18;97027.70;1667214;86;21012;-86
2022/07/08 05:35:05;;;;;;;6.65;6.05;;;;;;;16.12;91.44;97024.27;1669697;86;20960;-87
2022/07/08 05:37:31;;;;;;;7.15;5.37;;;;;;;16.10;90.75;97026.26;1723501;83;21029;-87
2022/07/08 05:39:57;;;;;;;5.15;4.28;;;;;;;16.12;91.11;97032.94;1727199;83;20981;-85
2022/07/08 05:42:22;;;;;;;4.58;4.17;;;;;;;16.16;91.32;97027.59;1724382;81;21368;-84
2022/07/08 05:44:48;;;;;;;6.65;5.92;;;;;;;16.18;91.44;97031.32;1723470;83;21044;-85
2022/07/08 05:47:14;;;;;;;7.85;7.10;;;;;;;16.21;90.67;97029.09;1726036;83;21006;-84
2022/07/08 05:49:43;;;;;;;7.20;6.60;;;;;;;16.27;90.31;97042.41;1723110;83;20979;-85
2022/07/08 05:52:08;;;;;;;10.72;8.43;;;;;;;16.30;90.67;97036.28;1725365;81;21014;-85
2022/07/08 05:54:34;;;;;;;8.70;7.78;;;;;;;16.34;90.53;97041.92;1725031;83;20963;-85
2022/07/08 05:57:00;;;;;;;8.43;7.65;;;;;;;16.37;89.83;97046.75;1725006;83;21041;-85
2022/07/08 05:59:28;;;;;;;11.68;8.28;;;;;;;16.38;89.54;97042.61;1725575;83;21418;-86
2022/07/08 06:01:55;;;;;;;12.60;9.95;;;;;;;16.42;89.67;97041.70;1722938;83;21025;-85
2022/07/08 06:04:21;;;;;;;10.38;9.25;;;;;;;16.46;89.06;97045.05;1723916;83;20981;-87
2022/07/08 06:06:46;;;;;;;9.75;8.78;;;;;;;16.47;89.55;97050.59;1721915;83;21014;-87
2022/07/08 06:09:12;;;;;;;8.75;7.87;;;;;;;16.51;88.94;97047.86;1726180;83;21020;-85
2022/07/08 06:11:38;;;;;;;14.28;8.38;;;;;;;16.57;90.25;97044.92;1724181;83;21026;-86
2022/07/08 06:14:05;;;;;;;9.20;7.85;;;;;;;16.61;88.88;97052.72;1723651;83;21434;-86
2022/07/08 06:16:30;;;;;;;8.43;7.58;;;;;;;16.64;89.25;97055.43;1723388;83;21085;-86
2022/07/08 06:18:56;;;;;;;8.70;7.92;;;;;;;16.65;88.41;97051.29;1722220;83;20993;-86
2022/07/08 06:21:22;;;;;;;9.63;8.20;;;;;;;16.69;88.32;97054.34;1727716;83;20979;-85
2022/07/08 06:23:47;;;;;;;9.48;8.28;;;;;;;16.70;88.13;97054.13;1724500;83;21358;-87
2022/07/08 06:26:13;;;;;;;10.00;9.03;;;;;;;16.65;88.40;97055.23;1724961;83;20937;-88
2022/07/08 06:28:39;;;;;;;10.63;9.60;;;;;;;16.66;88.11;97058.66;1715477;83;20974;-86
2022/07/08 06:31:05;;;;;;;9.45;8.35;;;;;;;16.68;87.62;97056.66;1708311;83;21493;-87
2022/07/08 06:33:30;;;;;;;9.78;8.78;;;;;;;16.70;86.94;97056.76;1721356;83;20971;-87
2022/07/08 06:35:56;;;;;;;9.28;8.35;;;;;;;16.78;87.91;97051.31;1728936;83;20962;-87
2022/07/08 06:38:22;;;;;;;9.10;8.20;;;;;;;16.89;86.68;97051.68;1730786;83;21384;-86
2022/07/08 06:40:48;;;;;;;8.88;8.03;;;;;;;16.92;87.41;97055.20;1723635;83;21066;-86
2022/07/08 06:43:13;;;;;;;7.95;6.95;;;;;;;16.99;87.39;97058.64;1723905;83;21017;-88
2022/07/08 06:45:39;;;;;;;7.55;6.85;;;;;;;17.15;88.30;97062.13;1727940;83;20966;-86
2022/07/08 06:48:05;;;;;;;7.90;7.20;;;;;;;17.30;88.84;97061.38;1724898;83;20923;-86
2022/07/08 06:50:31;;;;;;;8.78;7.53;;;;;;;17.40;87.78;97068.80;1727996;83;20995;-86
2022/07/08 06:52:56;;;;;;;9.83;8.43;;;;;;;17.38;86.00;97064.27;1724776;83;20922;-86
2022/07/08 06:55:22;;;;;;;8.78;7.92;;;;;;;17.39;84.74;97072.45;1725338;83;20949;-86
2022/07/08 06:57:48;;;;;;;8.98;7.67;;;;;;;17.43;84.54;97068.92;1722902;83;20987;-86
2022/07/08 07:00:15;;;;;;;7.97;7.30;;;;;;;17.45;86.40;97069.52;1724639;83;21040;-85
2022/07/08 07:02:42;;;;;;;6.78;6.08;;;;;;;17.42;85.77;97066.00;1725072;83;20982;-85
2022/07/08 07:05:08;;;;;;;9.68;6.35;;;;;;;17.47;86.38;97077.48;1726439;83;20982;-85
2022/07/08 07:07:34;;;;;;;6.47;5.87;;;;;;;17.50;86.06;97081.52;1725197;83;21350;-85
2022/07/08 07:10:00;;;;;;;9.50;7.85;;;;;;;17.52;86.66;97077.66;1725571;83;20943;-86
2022/07/08 07:12:26;;;;;;;11.20;8.43;;;;;;;17.49;84.97;97074.64;1724779;83;21030;-85
2022/07/08 07:14:52;;;;;;;10.60;9.70;;;;;;;17.49;84.61;97074.14;1727088;83;20967;-85
2022/07/08 07:17:19;;;;;;;10.65;9.55;;;;;;;17.64;84.35;97066.00;1726336;83;21497;-86
2022/07/08 07:19:46;;;;;;;10.40;9.18;;;;;;;17.76;84.31;97068.81;1726436;83;21030;-86
2022/07/08 07:22:12;;;;;;;9.13;8.33;;;;;;;17.79;83.58;97068.38;1703273;83;20963;-86
2022/07/08 07:24:39;;;;;;;8.90;8.00;;;;;;;17.77;83.80;97069.10;1730977;83;20978;-85
2022/07/08 07:27:05;;;;;;;8.60;7.80;;;;;;;17.82;83.77;97074.53;1726950;81;20945;-86
2022/07/08 07:29:30;;;;;;;8.70;7.80;;;;;;;17.88;83.63;97077.11;1695874;83;20983;-85
2022/07/08 07:31:56;;;;;;;8.95;8.05;;;;;;;18.04;84.21;97077.62;1726875;83;20970;-87
2022/07/08 07:34:22;;;;;;;8.65;7.85;;;;;;;18.22;83.49;97078.55;1724172;83;20970;-88
2022/07/08 07:36:48;;;;;;;10.43;8.15;;;;;;;18.33;83.19;97077.03;1725323;83;20959;-87
2022/07/08 07:39:13;;;;;;;9.48;8.45;;;;;;;18.21;84.16;97067.70;1725056;83;21033;-86
2022/07/08 07:41:40;;;;;;;9.05;8.18;;;;;;;18.30;83.94;97084.85;1700994;83;22494;-88
2022/07/08 07:44:06;;;;;;;9.60;8.68;;;;;;;18.24;82.65;97091.48;1722944;81;20995;-88
2022/07/08 07:46:32;;;;;;;10.15;9.23;;;;;;;18.23;82.29;97088.05;1727084;81;20990;-88
2022/07/08 07:48:58;;;;;;;9.88;8.93;;;;;;;18.23;82.32;97090.68;1724282;83;21412;-88
2022/07/08 07:51:24;;;;;;;11.08;10.08;;;;;;;18.24;82.47;97088.86;1727756;83;21096;-88
2022/07/08 07:53:51;;;;;;;10.68;9.58;;;;;;;18.16;81.96;97085.95;1725834;83;21041;-86
2022/07/08 07:56:16;;;;;;;11.75;9.40;;;;;;;18.14;82.34;97089.81;1724258;83;20970;-88
2022/07/08 07:58:42;;;;;;;10.53;9.25;;;;;;;18.09;82.16;97090.97;1725179;83;22014;-88
2022/07/08 08:01:08;;;;;;;10.75;8.60;;;;;;;18.04;82.06;97091.58;1731795;81;21137;-89
2022/07/08 08:03:33;;;;;;;9.98;8.98;;;;;;;18.04;82.05;97093.41;1724475;83;20978;-88
2022/07/08 08:06:00;;;;;;;9.65;8.75;;;;;;;18.03;81.88;97087.86;1727920;83;20966;-87
2022/07/08 08:08:26;;;;;;;10.13;9.20;;;;;;;18.10;82.41;97088.64;1728955;83;21070;-88
2022/07/08 08:10:52;;;;;;;8.83;7.80;;;;;;;18.18;81.06;97091.00;1727562;83;20954;-87
2022/07/08 08:13:18;;;;;;;10.18;9.33;;;;;;;18.34;82.53;97093.11;1723479;83;21124;-89
2022/07/08 08:15:45;;;;;;;8.95;7.95;;;;;;;18.49;81.13;97091.50;1729153;81;21309;-86
2022/07/08 08:18:10;;;;;;;8.05;7.25;;;;;;;18.63;79.81;97089.56;1726941;81;20951;-87
2022/07/08 08:20:36;;;;;;;7.62;6.92;;;;;;;18.67;79.87;97092.89;1728195;83;20990;-87
2022/07/08 08:23:04;;;;;;;6.92;6.33;;;;;;;18.73;80.20;97090.73;1719571;83;21021;-88
2022/07/08 08:25:30;;;;;;;6.22;5.70;;;;;;;18.77;79.71;97093.73;1714761;83;20941;-87
2022/07/08 08:27:56;;;;;;;7.45;6.85;;;;;;;18.73;79.33;97095.20;1726366;83;21061;-89
2022/07/08 08:30:22;;;;;;;6.60;5.83;;;;;;;18.68;78.43;97095.02;1712517;83;20966;-87
2022/07/08 08:32:48;;;;;;;7.67;6.40;;;;;;;18.78;79.74;97093.52;1709099;83;20958;-88
2022/07/08 08:35:14;;;;;;;6.97;6.35;;;;;;;19.00;79.40;97093.11;1713616;83;20981;-88
2022/07/08 08:37:40;;;;;;;7.50;6.78;;;;;;;19.12;78.22;97090.86;1708035;83;20926;-89
2022/07/08 08:40:10;;;;;;;6.85;6.25;;;;;;;19.38;78.81;97096.89;1725735;83;21341;-87
2022/07/08 08:42:36;;;;;;;7.58;6.97;;;;;;;19.52;79.81;97090.93;1728084;83;20955;-87
2022/07/08 08:45:03;;;;;;;7.65;6.80;;;;;;;19.52;77.61;97084.34;1726859;83;21368;-87
2022/07/08 08:47:31;;;;;;;6.92;6.17;;;;;;;19.36;76.37;97084.42;1725127;83;21365;-88
2022/07/08 08:49:57;;;;;;;5.28;4.78;;;;;;;19.30;76.74;97085.31;1728020;83;20961;-87
2022/07/08 08:52:23;;;;;;;6.22;4.55;;;;;;;19.33;78.13;97085.67;1723736;83;20929;-87
2022/07/08 08:54:50;;;;;;;4.15;3.72;;;;;;;19.43;78.81;97089.13;1727460;83;21358;-84
2022/07/08 08:57:17;;;;;;;4.33;3.90;;;;;;;19.55;78.86;97091.86;1696171;81;21090;-84
2022/07/08 08:59:43;;;;;;;4.50;4.03;;;;;;;19.62;79.04;97088.11;1692398;84;21025;-84
2022/07/08 09:02:09;;;;;;;7.35;5.95;;;;;;;19.71;78.84;97091.27;1683354;84;21023;-84
2022/07/08 09:04:35;;;;;;;5.62;5.10;;;;;;;19.74;76.72;97102.16;1684494;84;20983;-83
2022/07/08 09:07:01;;;;;;;5.65;5.10;;;;;;;19.73;77.88;97097.11;1657598;84;20978;-83
2022/07/08 09:09:27;;;;;;;5.50;5.03;;;;;;;19.83;76.28;97094.73;1686013;84;20984;-83
2022/07/08 09:11:52;;;;;;;6.60;5.25;;;;;;;19.70;76.19;97101.52;1697142;84;20920;-83
2022/07/08 09:14:22;;;;;;;6.05;5.35;;;;;;;19.54;76.34;97103.41;1687983;84;22130;-83
2022/07/08 09:17:17;;;;;;;5.80;5.20;;;;;;;19.41;76.91;97106.98;1696540;84;21038;-86
2022/07/08 09:19:46;;;;;;;5.22;4.72;;;;;;;19.35;76.46;97105.21;1627298;86;21011;-83
2022/07/08 09:22:12;;;;;;;5.37;4.80;;;;;;;19.30;76.58;97106.39;1651164;87;21106;-85
2022/07/08 09:24:42;;;;;;;7.22;5.62;;;;;;;19.25;76.80;97107.56;1693338;84;21068;-86
2022/07/08 09:27:07;;;;;;;7.90;5.87;;;;;;;19.23;77.17;97106.98;1683982;84;21082;-85
2022/07/08 09:29:33;;;;;;;7.87;5.97;;;;;;;19.17;76.53;97108.12;1686935;84;21175;-85
2022/07/08 09:32:15;;;;;;;10.20;9.03;;;;;;;19.13;77.07;97112.23;1686350;84;21051;-85
2022/07/08 09:34:41;;;;;;;7.30;6.53;;;;;;;19.14;76.42;97108.57;1686543;84;21359;-83
2022/07/08 09:37:18;;;;;;;7.40;6.62;;;;;;;19.19;76.70;97111.34;1697306;84;20979;-83
2022/07/08 09:39:44;;;;;;;5.17;4.78;;;;;;;19.28;76.58;97103.17;1696019;83;21091;-85
2022/07/08 09:42:11;;;;;;;5.25;4.75;;;;;;;19.33;76.86;97101.99;1692461;84;21385;-85
2022/07/08 09:44:37;;;;;;;7.58;6.83;;;;;;;19.36;76.60;97111.61;1683929;84;21055;-85
2022/07/08 09:47:13;;;;;;;5.60;5.10;;;;;;;19.32;75.97;97105.66;1679478;84;21023;-83
2022/07/08 09:49:46;;;;;;;6.20;4.60;;;;;;;19.28;75.04;97112.39;1681165;84;20997;-84
2022/07/08 09:52:21;;;;;;;4.92;3.42;;;;;;;19.31;75.73;97102.73;1670156;84;20944;-84
2022/07/08 09:55:01;;;;;;;4.92;3.90;;;;;;;19.40;76.68;97104.86;1696606;84;20979;-83
2022/07/08 09:57:29;;;;;;;3.65;3.30;;;;;;;19.51;77.12;97098.03;1664776;84;20992;-82
2022/07/08 09:59:56;;;;;;;3.50;3.02;;;;;;;19.75;76.08;97097.17;1680815;84;21031;-83
2022/07/08 10:02:21;;;;;;;2.65;2.45;;;;;;;20.03;76.04;97089.22;1688517;84;20971;-83
2022/07/08 10:04:49;;;;;;;2.35;2.15;;;;;;;20.51;75.97;97093.11;1689767;84;21025;-83
2022/07/08 10:07:14;;;;;;;2.27;2.08;;;;;;;20.74;74.41;97094.95;1703822;84;20981;-84
2022/07/08 10:09:40;;;;;;;2.47;2.22;;;;;;;21.00;71.64;97092.91;1703704;84;20999;-87
2022/07/08 10:12:07;;;;;;;2.72;2.35;;;;;;;21.28;71.75;97089.84;1691271;83;20995;-84
2022/07/08 10:14:32;;;;;;;3.02;2.70;;;;;;;21.48;71.33;97089.50;1688964;84;21011;-85
2022/07/08 10:16:58;;;;;;;3.27;2.65;;;;;;;21.45;70.42;97095.22;1688434;83;20916;-84
2022/07/08 10:19:30;;;;;;;3.08;2.55;;;;;;;21.28;68.78;97085.89;1692370;84;20995;-85
2022/07/08 10:21:57;;;;;;;3.98;2.52;;;;;;;21.12;67.46;97095.81;1697230;83;20995;-84
2022/07/08 10:24:26;;;;;;;3.40;2.55;;;;;;;20.94;68.49;97095.42;1685868;84;20939;-86
2022/07/08 10:26:52;;;;;;;3.02;2.83;;;;;;;20.89;68.06;97096.63;1680444;84;21051;-84
2022/07/08 10:29:18;;;;;;;3.42;3.12;;;;;;;20.85;67.89;97092.05;1690377;84;20998;-84
2022/07/08 10:31:52;;;;;;;3.08;2.83;;;;;;;20.87;68.03;97089.98;1648003;86;21006;-84
2022/07/08 10:34:31;;;;;;;3.77;2.50;;;;;;;20.89;70.52;97089.23;1695813;84;20935;-84
2022/07/08 10:36:57;;;;;;;4.05;2.95;;;;;;;20.91;70.57;97089.80;1692834;83;20983;-86
2022/07/08 10:39:27;;;;;;;3.42;2.67;;;;;;;20.94;69.43;97086.69;1682933;84;20979;-86
2022/07/08 10:42:01;;;;;;;3.33;2.95;;;;;;;21.02;70.08;97087.68;1688941;84;20967;-85
2022/07/08 10:44:49;;;;;;;5.70;3.22;;;;;;;21.07;69.35;97082.50;1666095;86;21019;-83
2022/07/08 10:47:29;;;;;;;4.17;3.33;;;;;;;21.11;69.21;97082.31;1645888;87;21072;-85
2022/07/08 10:50:07;;;;;;;4.00;3.60;;;;;;;20.99;69.27;97082.86;1640533;87;21524;-86
2022/07/08 10:52:39;;;;;;;3.80;3.50;;;;;;;20.78;69.88;97088.18;1651611;87;20966;-85
2022/07/08 10:55:14;;;;;;;3.70;3.30;;;;;;;20.64;69.00;97088.91;1652050;87;21011;-84
2022/07/08 10:57:56;;;;;;;4.65;3.70;;;;;;;20.48;69.08;97085.61;1675971;85;21043;-86
2022/07/08 11:00:22;;;;;;;4.90;4.50;;;;;;;20.37;69.62;97097.75;1675561;85;21059;-83
2022/07/08 11:02:48;;;;;;;6.65;6.00;;;;;;;20.23;69.38;97103.44;1682275;85;22084;-83
2022/07/08 11:05:37;;;;;;;8.05;7.25;;;;;;;19.86;69.75;97120.69;1682598;85;21028;-84
2022/07/08 11:08:25;;;;;;;12.25;7.72;;;;;;;19.54;70.66;97133.23;1677836;85;21069;-82
2022/07/08 11:10:52;;;;;;;9.50;8.58;;;;;;;19.25;71.59;97149.72;1704180;84;20999;-85
2022/07/08 11:13:19;;;;;;;8.70;8.00;;;;;;;18.89;72.12;97156.02;1699124;84;21441;-85
2022/07/08 11:15:45;;;;;;;9.83;8.83;;;;;;;18.63;73.01;97153.58;1708191;84;21042;-85
2022/07/08 11:18:11;;;;;;;9.63;8.80;;;;;;;18.38;74.28;97157.44;1698271;84;20979;-84
2022/07/08 11:20:37;;;;;;;11.73;9.63;;;;;;;18.12;75.94;97166.81;1711022;84;21349;-84
2022/07/08 11:23:05;;;;;;;12.07;10.05;;;;;;;17.88;77.37;97166.50;1709120;82;20991;-84
2022/07/08 11:25:31;;;;;;;11.20;10.15;;;;;;;17.67;78.31;97165.44;1708081;84;21049;-83
2022/07/08 11:27:57;;;;;;;12.13;10.93;;;;;;;17.56;79.51;97170.81;1696328;84;21408;-83
2022/07/08 11:30:23;;;;;;;10.50;9.48;;;;;;;17.51;80.65;97175.08;1683861;84;20980;-83
2022/07/08 11:32:51;;;;;;;11.15;10.15;;;;;;;17.48;81.20;97180.75;1707518;84;21417;-83